Weather reports worldwide

Advertisment
Fuengirola, Spain (8480): temperature & dewpoint: 22.05.2020 23:00:00 - 28.05.2020 23:00:00 (CEST)Fuengirola, Spain (8480): wind speed & gusts: 22.05.2020 23:00:00 - 28.05.2020 23:00:00 (CEST)Fuengirola, Spain (8480): wind direction: 22.05.2020 23:00:00 - 28.05.2020 23:00:00 (CEST)Fuengirola, Spain (8480): reduced air pressure: 22.05.2020 23:00:00 - 28.05.2020 23:00:00 (CEST)Fuengirola, Spain (8480): precipitation: 22.05.2020 23:00:00 - 28.05.2020 23:00:00 (CEST)
Date & Time tt [°C] td [°C] ff [km/h] ff [kn] fx [km/h] fx [kn] dd ppp [hPa] rr [mm]
28.05.2020 23:00:00 - - - - - - - - -
28.05.2020 22:00:00 21,4 18,2 1 0 8 4 S 1021,0 0,0
28.05.2020 21:00:00 21,8 18,2 4 2 9 5 SSE 1020,9 0,0
28.05.2020 20:00:00 22,1 18,7 2 1 8 5 SSW 1020,7 -
28.05.2020 19:00:00 22,1 18,5 4 2 19 10 SSW 1020,7 0,0
28.05.2020 18:00:00 22,0 18,4 6 4 14 7 SSW 1020,9 0,0
28.05.2020 17:00:00 22,0 18,2 3 1 11 6 SW 1021,2 0,0
28.05.2020 16:00:00 21,7 18,5 7 4 16 9 SSW 1021,8 0,0
28.05.2020 15:00:00 21,5 18,1 8 5 19 11 SSW 1022,2 0,0
28.05.2020 14:00:00 20,7 18,5 6 3 14 8 SW 1022,6 -
28.05.2020 13:00:00 20,5 18,8 4 2 13 7 SW 1022,8 0,0
28.05.2020 12:00:00 20,6 18,7 9 5 18 10 SSW 1023,2 0,0
28.05.2020 11:00:00 20,9 19,0 4 2 13 7 SSW 1023,3 0,0
28.05.2020 10:00:00 20,9 18,8 2 1 15 8 WSW 1023,0 0,0
28.05.2020 09:00:00 20,7 18,8 4 2 15 8 W 1022,8 0,0
28.05.2020 08:00:00 20,3 18,1 5 3 11 6 W 1022,9 -
28.05.2020 07:00:00 19,9 17,3 6 3 13 7 W 1022,5 0,0
28.05.2020 06:00:00 19,6 16,8 5 3 13 7 W 1022,5 0,0
28.05.2020 05:00:00 19,8 16,6 7 4 13 7 W 1022,4 0,0
28.05.2020 04:00:00 20,3 17,1 6 4 12 6 W 1022,7 0,0
28.05.2020 03:00:00 20,9 17,9 7 4 11 6 ENE 1023,2 0,0
28.05.2020 02:00:00 21,1 17,7 6 4 14 8 E 1023,8 -
28.05.2020 01:00:00 21,3 17,5 8 4 18 10 ESE 1024,1 0,0
28.05.2020 00:00:00 21,5 17,7 4 2 8 4 ENE 1024,3 0,0
27.05.2020 23:00:00 21,6 17,8 3 2 8 5 NE 1024,3 0,0
27.05.2020 22:00:00 21,7 17,7 4 2 10 5 ENE 1023,9 0,0
27.05.2020 21:00:00 22,2 18,0 1 1 5 3 S 1023,4 0,0
27.05.2020 20:00:00 22,2 18,8 1 1 5 3 W 1023,1 -
27.05.2020 19:00:00 22,2 19,3 2 1 7 4 SW 1023,1 0,0
27.05.2020 18:00:00 22,6 18,8 3 2 13 7 SW 1023,4 0,0
27.05.2020 17:00:00 22,2 18,6 4 2 12 6 SW 1023,5 0,0
27.05.2020 16:00:00 22,6 18,5 2 1 9 5 WSW 1023,7 0,0
27.05.2020 15:00:00 22,2 18,2 3 2 11 6 SSW 1024,0 0,0
27.05.2020 14:00:00 22,2 18,0 6 4 16 9 SSW 1024,1 -
27.05.2020 13:00:00 22,3 18,9 4 2 10 5 SSW 1024,2 0,0
27.05.2020 12:00:00 21,7 18,9 6 3 18 10 SSW 1023,9 0,0
27.05.2020 11:00:00 21,2 18,8 10 5 16 9 SSW 1023,6 0,0
27.05.2020 10:00:00 21,3 18,7 5 3 11 6 SSW 1023,7 0,0
27.05.2020 09:00:00 20,5 18,2 3 1 13 7 WNW 1023,5 0,0
27.05.2020 08:00:00 19,6 17,4 5 3 15 8 W 1023,4 -
27.05.2020 07:00:00 19,9 17,7 5 3 10 5 W 1023,1 0,0
27.05.2020 06:00:00 20,5 18,2 1 1 16 8 N 1023,0 0,0
27.05.2020 05:00:00 20,5 18,2 5 3 11 6 ENE 1023,4 0,0
27.05.2020 04:00:00 20,5 18,2 5 3 11 6 NE 1023,7 0,0
27.05.2020 03:00:00 20,6 18,4 1 1 10 5 ESE 1024,1 0,0
27.05.2020 02:00:00 20,8 18,5 8 5 19 10 E 1024,4 -
27.05.2020 01:00:00 20,7 18,5 10 5 17 9 ENE 1024,6 0,0
27.05.2020 00:00:00 21,3 18,1 9 5 18 10 ENE 1025,0 0,0
26.05.2020 23:00:00 21,7 17,9 10 5 16 9 E 1024,8 0,0
26.05.2020 22:00:00 21,7 17,3 8 4 13 7 ENE 1024,1 0,0
26.05.2020 21:00:00 22,3 17,2 5 3 14 8 ENE 1023,7 0,0
26.05.2020 20:00:00 23,1 17,3 7 4 14 8 ENE 1023,6 -
26.05.2020 19:00:00 23,5 17,5 7 4 13 7 NE 1023,8 0,0
26.05.2020 18:00:00 23,7 17,5 6 3 15 8 ENE 1024,1 0,0
26.05.2020 17:00:00 23,9 17,6 6 3 11 6 E 1024,4 0,0
26.05.2020 16:00:00 23,6 17,8 8 4 18 10 ESE 1025,0 0,0
26.05.2020 15:00:00 23,7 16,7 8 4 16 9 SE 1025,4 0,0
26.05.2020 14:00:00 23,8 16,0 4 2 13 7 E 1025,6 -
26.05.2020 13:00:00 23,5 15,8 5 3 12 6 E 1025,9 0,0
26.05.2020 12:00:00 23,2 15,3 4 2 14 8 ESE 1025,6 0,0
26.05.2020 11:00:00 22,3 15,4 2 1 11 6 ENE 1025,4 0,0
26.05.2020 10:00:00 23,3 17,5 2 1 11 6 SE 1025,4 0,0
26.05.2020 09:00:00 19,9 14,9 3 2 10 6 WNW 1025,3 0,0
26.05.2020 08:00:00 19,1 14,3 4 2 13 7 WNW 1025,4 -
26.05.2020 07:00:00 19,2 14,4 5 3 11 6 WNW 1024,8 0,0
26.05.2020 06:00:00 19,6 14,6 5 3 11 6 WNW 1024,7 0,0
26.05.2020 05:00:00 20,6 15,6 6 3 16 9 ENE 1024,5 0,0
26.05.2020 04:00:00 20,7 15,7 11 6 19 11 ENE 1024,4 0,0
26.05.2020 03:00:00 20,6 16,4 11 6 19 10 ENE 1025,0 0,0
26.05.2020 02:00:00 20,4 16,6 9 5 14 8 ENE 1025,6 -
26.05.2020 01:00:00 20,6 17,2 5 3 10 5 E 1026,2 0,0
26.05.2020 00:00:00 20,7 17,1 8 4 14 8 E 1026,5 0,0
25.05.2020 23:00:00 21,0 17,2 10 6 16 9 E 1026,3 0,0
25.05.2020 22:00:00 21,1 17,7 8 4 14 8 ENE 1025,9 0,0
25.05.2020 21:00:00 21,5 17,9 5 3 19 10 E 1025,6 0,0
25.05.2020 20:00:00 22,3 18,5 12 7 21 12 E 1025,1 -
25.05.2020 19:00:00 22,9 19,3 8 4 14 7 E 1025,2 0,0
25.05.2020 18:00:00 22,8 19,0 5 3 14 8 ESE 1025,5 0,0
25.05.2020 17:00:00 22,4 19,6 8 4 13 7 SE 1025,7 0,0
25.05.2020 16:00:00 22,1 19,3 7 4 12 6 SSE 1025,9 0,0
25.05.2020 15:00:00 21,8 19,0 4 2 13 7 SSW 1026,2 0,0
25.05.2020 14:00:00 22,0 19,0 7 4 11 6 SSE 1026,5 -
25.05.2020 13:00:00 22,0 18,8 3 1 9 5 SSE 1026,7 0,0
25.05.2020 12:00:00 21,8 18,6 2 1 12 6 SE 1026,9 0,0
25.05.2020 11:00:00 21,3 19,1 5 3 9 5 ENE 1027,0 0,0
25.05.2020 10:00:00 20,6 19,4 6 3 8 5 SE 1026,7 0,0
25.05.2020 09:00:00 20,2 18,8 5 3 9 5 ENE 1026,4 0,0
25.05.2020 08:00:00 19,6 17,9 2 1 7 4 NNE 1026,7 -
25.05.2020 07:00:00 19,5 17,9 1 1 6 3 WNW 1026,5 0,0
25.05.2020 06:00:00 19,5 18,2 2 1 10 5 WNW 1026,5 0,0
25.05.2020 05:00:00 20,1 18,8 9 5 12 7 ESE 1026,4 0,0
25.05.2020 04:00:00 20,5 19,1 5 3 8 5 E 1026,6 0,0
25.05.2020 03:00:00 20,6 19,3 5 3 11 6 E 1027,0 0,0
25.05.2020 02:00:00 20,7 19,3 5 3 12 6 E 1027,3 -
25.05.2020 01:00:00 20,8 18,0 4 2 7 4 SE 1027,6 0,0
25.05.2020 00:00:00 21,2 17,6 5 3 12 6 SE 1027,6 0,0
24.05.2020 23:00:00 21,4 17,0 8 5 15 8 E 1027,5 0,0
24.05.2020 22:00:00 21,7 17,1 8 5 13 7 E 1026,7 0,0
24.05.2020 21:00:00 22,2 18,4 3 2 9 5 E 1026,2 0,0
24.05.2020 20:00:00 23,0 18,3 4 2 7 4 ESE 1026,3 -
24.05.2020 19:00:00 23,4 19,6 4 2 8 5 S 1026,5 0,0
24.05.2020 18:00:00 23,9 18,3 5 3 12 6 S 1026,5 0,0
24.05.2020 17:00:00 24,3 17,8 6 3 16 9 ESE 1026,6 0,0
24.05.2020 16:00:00 24,0 17,9 8 4 13 7 NE 1027,0 0,0
24.05.2020 15:00:00 23,9 19,0 4 2 11 6 ENE 1027,6 0,0
24.05.2020 14:00:00 24,2 19,3 6 4 16 9 E 1027,9 -
24.05.2020 13:00:00 23,7 18,8 9 5 14 7 E 1028,0 0,0
24.05.2020 12:00:00 21,2 19,0 4 2 10 6 SSW 1027,8 0,0
24.05.2020 11:00:00 21,8 18,0 3 2 8 5 SSW 1027,0 0,0
24.05.2020 10:00:00 21,8 16,6 2 1 8 4 SSE 1026,7 0,0
24.05.2020 09:00:00 21,4 14,8 0 0 5 3 W 1026,2 0,0
24.05.2020 08:00:00 21,4 14,3 3 2 14 8 WNW 1025,7 -
24.05.2020 07:00:00 22,2 15,3 10 5 19 10 E 1025,2 0,0
24.05.2020 06:00:00 21,1 14,2 3 2 7 4 NNW 1024,6 0,0
24.05.2020 05:00:00 21,5 14,4 2 1 8 4 NW 1024,5 0,0
24.05.2020 04:00:00 21,3 14,4 2 1 6 4 NW 1024,8 0,0
24.05.2020 03:00:00 21,9 15,0 2 1 9 5 NW 1025,1 0,0
24.05.2020 02:00:00 22,0 15,6 3 1 5 3 NW 1025,5 -
24.05.2020 01:00:00 22,1 16,4 0 0 5 3 NNW 1025,8 0,0
24.05.2020 00:00:00 22,8 15,9 0 0 4 2 W 1025,7 0,0
23.05.2020 23:00:00 23,1 15,7 0 0 5 3 E 1025,3 0,0
23.05.2020 22:00:00 23,3 15,9 1 0 6 3 NNE 1024,6 0,0
23.05.2020 21:00:00 24,1 16,4 1 1 6 3 SE 1024,4 0,0
23.05.2020 20:00:00 24,3 18,0 1 0 9 5 S 1024,0 -
23.05.2020 19:00:00 24,6 18,1 6 3 9 5 S 1024,2 0,0
23.05.2020 18:00:00 25,3 14,7 1 1 6 3 SSE 1024,6 0,0
23.05.2020 17:00:00 25,8 15,2 3 1 8 4 SSE 1025,1 0,0
23.05.2020 16:00:00 26,2 15,5 6 4 11 6 ESE 1025,3 0,0
23.05.2020 15:00:00 25,3 15,9 8 4 16 9 ESE 1025,8 0,0
23.05.2020 14:00:00 26,5 16,1 10 5 16 8 E 1026,2 -
23.05.2020 13:00:00 25,8 16,6 6 4 13 7 E 1026,5 0,0
23.05.2020 12:00:00 23,5 17,7 5 3 13 7 E 1026,8 0,0
23.05.2020 11:00:00 24,3 16,6 7 4 12 6 E 1026,3 0,0
23.05.2020 10:00:00 24,3 16,3 1 1 10 6 N 1026,1 0,0
23.05.2020 09:00:00 22,1 15,7 8 4 15 8 WNW 1025,6 0,0
23.05.2020 08:00:00 21,1 15,4 7 4 12 7 W 1025,3 -
23.05.2020 07:00:00 20,9 15,0 4 2 8 5 NW 1025,1 0,0
23.05.2020 06:00:00 21,6 14,7 3 2 11 6 N 1025,0 0,0
23.05.2020 05:00:00 21,5 16,9 9 5 17 9 NE 1025,1 0,0
23.05.2020 04:00:00 20,2 17,6 3 2 12 7 ENE 1025,3 0,0
23.05.2020 03:00:00 20,7 17,9 1 0 10 5 SSE 1025,3 0,0
23.05.2020 02:00:00 20,7 19,0 3 2 9 5 NNE 1025,5 -
23.05.2020 01:00:00 20,6 19,4 0 0 5 3 E 1025,4 0,0
23.05.2020 00:00:00 20,8 20,0 2 1 9 5 E 1025,2 0,0
22.05.2020 23:00:00 21,3 20,7 3 2 8 4 NE 1024,9 0,0

tt = temperature
td = dewpoint
ff = wind speed
fx = gusts
dd = wind direction
ppp = reduced air pressure
rr = precipitation

Next stations